Time;durP1;ratioP1;P1;durP2;ratioP2;P2;SDS_P1;SDS_P2;PMS_P1;PMS_P2;Temp;Humidity;BMP_temperature;BMP_pressure;BME280_temperature;BME280_humidity;BME280_pressure;Samples;Min_cycle;Max_cycle;Signal;HPM_P1;HPM_P2
2023/11/24 00:02:58;;;;;;;0.00;0.00;;;;;;;7.09;70.27;99688.88;15674687;28;20075;-48
2023/11/24 00:10:34;;;;;;;0.55;0.55;;;;;;;6.93;70.12;99702.69;15674840;28;20072;-48
2023/11/24 00:18:09;;;;;;;0.00;0.00;;;;;;;6.71;70.60;99688.81;15655072;28;20041;-53
2023/11/24 00:25:44;;;;;;;0.00;0.00;;;;;;;6.65;70.11;99696.63;15656303;28;20087;-50
2023/11/24 00:33:18;;;;;;;0.00;0.00;;;;;;;6.54;70.85;99710.59;15672110;28;20427;-51
2023/11/24 00:40:55;;;;;;;0.80;0.80;;;;;;;6.35;71.19;99714.13;15658454;28;20029;-54
2023/11/24 00:48:31;;;;;;;0.00;0.00;;;;;;;6.26;70.46;99707.41;15649972;28;20039;-52
2023/11/24 00:56:07;;;;;;;0.00;0.00;;;;;;;6.33;68.56;99713.50;15673008;28;20049;-49
2023/11/24 01:03:42;;;;;;;0.00;0.00;;;;;;;6.35;68.83;99703.47;15671286;28;20057;-48
2023/11/24 01:11:18;;;;;;;0.00;0.00;;;;;;;6.23;69.35;99699.81;15671901;28;20040;-48
2023/11/24 01:18:52;;;;;;;0.00;0.00;;;;;;;6.28;69.60;99695.47;15648832;28;20479;-50
2023/11/24 01:26:26;;;;;;;0.00;0.00;;;;;;;6.33;70.06;99698.34;15628969;28;20041;-50
2023/11/24 01:34:00;;;;;;;0.00;0.00;;;;;;;6.22;70.67;99704.31;15653541;28;20064;-47
2023/11/24 01:41:34;;;;;;;0.00;0.00;;;;;;;6.39;70.45;99697.53;15673254;28;20033;-54
2023/11/24 01:49:10;;;;;;;0.00;0.00;;;;;;;6.26;70.36;99707.41;15682822;28;20474;-51
2023/11/24 01:56:46;;;;;;;0.00;0.00;;;;;;;5.99;70.33;99696.75;15682875;22;20568;-52
2023/11/24 02:04:20;;;;;;;0.10;0.10;;;;;;;5.93;73.69;99715.41;15729224;28;20056;-56
2023/11/24 02:11:55;;;;;;;0.13;0.13;;;;;;;5.75;74.25;99730.13;15729355;28;20152;-49
2023/11/24 02:19:29;;;;;;;0.65;0.65;;;;;;;5.72;74.39;99735.84;15742571;28;20494;-50
2023/11/24 02:27:05;;;;;;;0.10;0.10;;;;;;;5.65;74.28;99712.91;15742138;28;20207;-54
2023/11/24 02:34:38;;;;;;;0.20;0.20;;;;;;;5.54;74.10;99693.84;15741038;28;20044;-48
2023/11/24 02:42:14;;;;;;;0.00;0.00;;;;;;;5.70;73.36;99697.13;15741900;28;20103;-53
2023/11/24 02:49:48;;;;;;;0.00;0.00;;;;;;;5.06;74.01;99640.75;15740916;28;20036;-50
2023/11/24 02:57:24;;;;;;;0.00;0.00;;;;;;;5.17;73.61;99700.50;15740403;28;20032;-53
2023/11/24 03:04:58;;;;;;;0.00;0.00;;;;;;;5.37;71.61;99692.59;15741587;28;20044;-61
2023/11/24 03:12:33;;;;;;;0.00;0.00;;;;;;;4.89;71.66;99628.03;15742643;28;20482;-51
2023/11/24 03:20:11;;;;;;;0.00;0.00;;;;;;;5.22;70.89;99666.19;15743856;28;20036;-53
2023/11/24 03:27:49;;;;;;;0.00;0.00;;;;;;;5.15;72.44;99677.81;15725883;28;20047;-51
2023/11/24 03:35:24;;;;;;;0.20;0.20;;;;;;;5.06;74.21;99677.16;15746156;28;20072;-50
2023/11/24 03:43:01;;;;;;;0.03;0.03;;;;;;;5.10;74.58;99687.22;15735205;28;20045;-52
2023/11/24 03:50:39;;;;;;;0.00;0.00;;;;;;;5.08;74.05;99651.19;15738797;28;20056;-56
2023/11/24 03:58:14;;;;;;;0.00;0.00;;;;;;;5.31;74.66;99675.56;15731855;28;20033;-50
2023/11/24 04:06:02;;;;;;;0.00;0.00;;;;;;;4.99;75.21;99673.66;15730810;28;20044;-51
2023/11/24 04:13:38;;;;;;;;;;;;;;;5.22;74.46;99663.50;15720378;28;20401;-53
2023/11/24 04:21:12;;;;;;;0.00;0.00;;;;;;;4.94;74.57;99662.81;15726510;28;19956;-49
2023/11/24 04:28:47;;;;;;;0.00;0.00;;;;;;;4.92;74.38;99657.69;15735543;28;20395;-49
2023/11/24 04:36:21;;;;;;;0.00;0.00;;;;;;;4.73;75.20;99642.50;15736708;28;20036;-50
2023/11/24 04:43:56;;;;;;;0.00;0.00;;;;;;;4.82;74.33;99636.81;15736176;28;20052;-52
2023/11/24 04:51:31;;;;;;;0.00;0.00;;;;;;;4.83;74.02;99642.94;15735642;28;20384;-50
2023/11/24 04:59:06;;;;;;;0.00;0.00;;;;;;;4.74;73.67;99630.84;15725013;28;20072;-54
2023/11/24 05:06:39;;;;;;;0.00;0.00;;;;;;;4.75;73.40;99627.16;15734944;28;20068;-58
2023/11/24 05:14:14;;;;;;;0.00;0.00;;;;;;;4.58;74.00;99624.88;15733740;28;20074;-52
2023/11/24 05:21:50;;;;;;;0.00;0.00;;;;;;;4.32;74.80;99622.91;15733634;28;20090;-48
2023/11/24 05:29:31;;;;;;;0.00;0.00;;;;;;;4.68;74.10;99618.34;15733938;28;20525;-50
2023/11/24 05:37:07;;;;;;;0.00;0.00;;;;;;;4.41;75.08;99615.59;15736777;28;20048;-49
2023/11/24 05:44:42;;;;;;;0.00;0.00;;;;;;;4.51;75.11;99613.38;15736303;28;20493;-50
2023/11/24 05:52:16;;;;;;;0.00;0.00;;;;;;;4.40;76.39;99623.78;15735257;28;20040;-50
2023/11/24 05:59:52;;;;;;;0.00;0.00;;;;;;;4.54;75.89;99626.28;15737629;28;20075;-55
2023/11/24 06:07:26;;;;;;;0.00;0.00;;;;;;;4.63;75.80;99626.13;15732219;28;20045;-53
2023/11/24 06:15:05;;;;;;;0.00;0.00;;;;;;;4.65;75.68;99619.56;15731814;28;20056;-50
2023/11/24 06:22:39;;;;;;;0.00;0.00;;;;;;;4.41;75.66;99602.31;15732123;28;20045;-52
2023/11/24 06:30:15;;;;;;;0.00;0.00;;;;;;;4.24;75.16;99608.97;15737588;28;20082;-47
2023/11/24 06:37:48;;;;;;;0.00;0.00;;;;;;;4.42;73.35;99579.22;15745111;28;20114;-52
2023/11/24 06:45:23;;;;;;;0.00;0.00;;;;;;;4.46;73.35;99588.44;15742429;28;20045;-49
2023/11/24 06:52:56;;;;;;;0.00;0.00;;;;;;;4.31;73.63;99586.75;15746881;28;20044;-52
2023/11/24 07:00:32;;;;;;;0.00;0.00;;;;;;;4.16;73.39;99590.56;15740970;28;20037;-53
2023/11/24 07:08:05;;;;;;;0.00;0.00;;;;;;;4.24;72.78;99596.53;15741978;28;20414;-55
2023/11/24 07:15:40;;;;;;;0.00;0.00;;;;;;;4.26;72.45;99596.31;15740090;28;20127;-53
2023/11/24 07:23:15;;;;;;;0.00;0.00;;;;;;;4.33;71.63;99603.28;15739386;28;20045;-53
2023/11/24 07:30:49;;;;;;;;;;;;;;;4.40;71.24;99600.69;15740831;28;20582;-54
2023/11/24 07:38:25;;;;;;;0.00;0.00;;;;;;;4.48;70.99;99595.19;15738544;28;19974;-54
2023/11/24 07:46:00;;;;;;;;;;;;;;;4.20;72.05;99597.94;15718934;28;20075;-53
2023/11/24 07:53:34;;;;;;;0.00;0.00;;;;;;;4.37;71.69;99600.25;15731266;28;19925;-54
2023/11/24 08:01:09;;;;;;;0.00;0.00;;;;;;;4.41;71.05;99590.88;15721391;22;20057;-46
2023/11/24 08:08:42;;;;;;;0.00;0.00;;;;;;;4.25;70.65;99590.19;15669669;28;20053;-45
2023/11/24 08:16:17;;;;;;;;;;;;;;;4.08;71.35;99578.25;15667973;28;20052;-45
2023/11/24 08:23:50;;;;;;;0.00;0.00;;;;;;;4.57;69.82;99578.06;15634718;28;19921;-46
2023/11/24 08:31:26;;;;;;;0.00;0.00;;;;;;;4.72;69.37;99582.41;15669897;28;20037;-48
2023/11/24 08:38:59;;;;;;;0.00;0.00;;;;;;;4.85;69.94;99579.78;15667013;28;20084;-50
2023/11/24 08:46:34;;;;;;;;;;;;;;;5.12;68.06;99567.31;15641554;28;20144;-47
2023/11/24 08:54:09;;;;;;;0.00;0.00;;;;;;;5.48;66.99;99563.44;15662319;28;19920;-48
2023/11/24 09:01:43;;;;;;;0.00;0.00;;;;;;;5.56;66.12;99558.72;15662462;28;20148;-51
2023/11/24 09:09:17;;;;;;;0.13;0.13;;;;;;;5.98;64.93;99553.13;15662286;28;20136;-50
2023/11/24 09:16:52;;;;;;;0.52;0.52;;;;;;;5.45;65.06;99556.66;15644232;28;20060;-45
2023/11/24 09:24:25;;;;;;;0.00;0.00;;;;;;;5.38;65.97;99558.53;15661036;28;20539;-50
2023/11/24 09:32:01;;;;;;;0.00;0.00;;;;;;;5.17;66.96;99543.56;15644046;28;20044;-47
2023/11/24 09:39:34;;;;;;;0.00;0.00;;;;;;;6.23;63.20;99516.75;15633973;28;20044;-49
2023/11/24 09:47:12;;;;;;;0.00;0.00;;;;;;;5.62;64.13;99525.13;15646927;28;20045;-52
2023/11/24 09:54:46;;;;;;;0.00;0.00;;;;;;;5.41;65.51;99504.91;15642848;28;20045;-52
2023/11/24 10:02:26;;;;;;;0.00;0.00;;;;;;;5.51;65.43;99492.00;15664928;28;20474;-55
2023/11/24 10:10:00;;;;;;;0.00;0.00;;;;;;;5.02;66.63;99481.78;15676944;28;20099;-55
2023/11/24 10:17:36;;;;;;;0.00;0.00;;;;;;;5.51;65.00;99475.19;15664824;28;20696;-52
2023/11/24 10:25:12;;;;;;;0.73;0.73;;;;;;;5.36;64.23;99451.47;15671847;28;20118;-54
2023/11/24 10:32:48;;;;;;;0.00;0.00;;;;;;;5.87;63.45;99454.19;15641468;28;20037;-54
2023/11/24 10:40:23;;;;;;;0.00;0.00;;;;;;;6.34;62.18;99432.66;15673670;28;20060;-54
2023/11/24 10:48:09;;;;;;;0.00;0.00;;;;;;;6.23;62.41;99426.16;15672565;28;20111;-52
2023/11/24 10:55:45;;;;;;;0.00;0.00;;;;;;;5.98;61.65;99415.47;15661636;28;20519;-53
2023/11/24 11:03:20;;;;;;;0.15;0.15;;;;;;;5.68;63.40;99399.16;15666952;28;20088;-52
2023/11/24 11:11:12;;;;;;;0.00;0.00;;;;;;;5.80;63.89;99397.47;15669927;28;20471;-56
2023/11/24 11:18:48;;;;;;;0.00;0.00;;;;;;;6.19;60.87;99384.19;15663895;28;20063;-51
2023/11/24 11:26:45;;;;;;;0.00;0.00;;;;;;;6.82;59.60;99381.44;15672087;28;20712;-55
2023/11/24 11:34:30;;;;;;;0.00;0.00;;;;;;;7.59;58.42;99380.00;15653787;28;20044;-55
2023/11/24 11:42:04;;;;;;;0.00;0.00;;;;;;;7.61;56.86;99358.44;15637409;28;20029;-56
2023/11/24 11:49:41;;;;;;;0.00;0.00;;;;;;;6.85;59.19;99343.66;15672520;28;20033;-53
2023/11/24 11:57:15;;;;;;;0.00;0.00;;;;;;;7.15;57.56;99325.09;15670758;28;20049;-55
2023/11/24 12:04:51;;;;;;;0.17;0.17;;;;;;;7.96;56.19;99315.81;15669853;28;20057;-53
2023/11/24 12:12:24;;;;;;;0.00;0.00;;;;;;;6.25;59.41;99316.69;15669623;28;20359;-55
2023/11/24 12:19:59;;;;;;;;;;;;;;;6.45;59.12;99309.38;15648884;28;20165;-54
2023/11/24 12:27:34;;;;;;;0.00;0.00;;;;;;;6.18;60.43;99298.13;15667770;28;20007;-55
2023/11/24 12:35:11;;;;;;;0.00;0.00;;;;;;;5.54;62.20;99305.25;15664997;28;20138;-56
2023/11/24 12:42:53;;;;;;;0.00;0.00;;;;;;;5.84;61.20;99280.72;15667253;28;20056;-56
2023/11/24 12:50:31;;;;;;;0.00;0.00;;;;;;;5.78;62.01;99269.09;15667050;28;20056;-54
2023/11/24 12:58:04;;;;;;;0.00;0.00;;;;;;;5.97;61.95;99259.34;15618160;28;20051;-56
2023/11/24 13:05:40;;;;;;;0.00;0.00;;;;;;;5.91;61.04;99254.84;15663294;28;20106;-50
2023/11/24 13:13:14;;;;;;;0.00;0.00;;;;;;;5.82;61.79;99234.84;15643773;28;20072;-56
2023/11/24 13:20:49;;;;;;;0.00;0.00;;;;;;;5.40;62.65;99223.84;15662369;28;20407;-52
2023/11/24 13:28:23;;;;;;;0.00;0.00;;;;;;;5.30;63.43;99236.81;15664290;28;20079;-55
2023/11/24 13:36:00;;;;;;;0.00;0.00;;;;;;;5.15;70.97;99239.75;15666805;28;20131;-56
2023/11/24 13:43:35;;;;;;;1.00;0.43;;;;;;;4.69;74.73;99229.28;15677769;28;20041;-55
2023/11/24 13:51:09;;;;;;;0.00;0.00;;;;;;;4.45;75.80;99228.94;15677006;28;20086;-53
2023/11/24 13:58:43;;;;;;;0.08;0.08;;;;;;;4.16;76.19;99234.72;15708621;22;20072;-54
2023/11/24 14:06:19;;;;;;;0.10;0.10;;;;;;;4.05;75.63;99215.72;15745764;28;20113;-55
2023/11/24 14:13:54;;;;;;;0.00;0.00;;;;;;;4.35;74.21;99209.97;15725821;28;20383;-52
2023/11/24 14:21:29;;;;;;;0.00;0.00;;;;;;;4.38;73.41;99209.53;15743716;28;20098;-55
2023/11/24 14:29:05;;;;;;;0.00;0.00;;;;;;;4.44;71.84;99203.41;15738003;28;20043;-52
2023/11/24 14:36:42;;;;;;;0.00;0.00;;;;;;;4.41;71.27;99166.63;15741533;28;20094;-54
2023/11/24 14:44:23;;;;;;;0.00;0.00;;;;;;;4.26;71.27;99160.75;15711038;28;20067;-52
2023/11/24 14:51:58;;;;;;;0.00;0.00;;;;;;;4.09;70.79;99190.38;15748174;28;20049;-54
2023/11/24 14:59:31;;;;;;;0.00;0.00;;;;;;;4.13;70.26;99189.97;15731197;28;20032;-56
2023/11/24 15:07:08;;;;;;;;;;;;;;;4.34;70.66;99171.97;15747407;28;20059;-51
2023/11/24 15:14:45;;;;;;;0.00;0.00;;;;;;;4.03;71.60;99156.69;15707929;28;19931;-57
2023/11/24 15:22:21;;;;;;;0.00;0.00;;;;;;;4.33;71.35;99153.56;15741286;28;20044;-56
2023/11/24 15:29:55;;;;;;;0.00;0.00;;;;;;;4.10;72.51;99146.06;15741892;28;20051;-53
2023/11/24 15:37:31;;;;;;;0.00;0.00;;;;;;;4.12;71.78;99135.25;15740623;28;20053;-55
2023/11/24 15:45:10;;;;;;;0.00;0.00;;;;;;;3.92;71.11;99137.94;15735633;28;20047;-52
2023/11/24 15:52:45;;;;;;;0.00;0.00;;;;;;;3.98;70.10;99111.38;15737676;28;20090;-54
2023/11/24 16:00:31;;;;;;;0.00;0.00;;;;;;;4.27;68.68;99125.19;15737531;28;20104;-55
2023/11/24 16:08:07;;;;;;;0.00;0.00;;;;;;;3.92;70.20;99122.84;15740210;28;20052;-52
2023/11/24 16:15:41;;;;;;;0.00;0.00;;;;;;;4.17;69.43;99120.31;15738824;28;20052;-54
2023/11/24 16:23:15;;;;;;;0.00;0.00;;;;;;;3.85;70.27;99127.31;15717881;28;20044;-53
2023/11/24 16:30:49;;;;;;;0.00;0.00;;;;;;;3.67;69.97;99114.69;15737490;28;20054;-55
2023/11/24 16:38:26;;;;;;;0.00;0.00;;;;;;;3.96;69.01;99124.03;15736383;28;20102;-53
2023/11/24 16:46:00;;;;;;;0.00;0.00;;;;;;;3.48;70.58;99115.50;15727964;28;20473;-57
2023/11/24 16:53:36;;;;;;;0.00;0.00;;;;;;;3.44;70.90;99120.41;15732092;28;20040;-53
2023/11/24 17:01:09;;;;;;;0.00;0.00;;;;;;;3.57;70.99;99117.75;15732487;28;20045;-54
2023/11/24 17:08:44;;;;;;;0.00;0.00;;;;;;;3.60;71.57;99126.34;15733591;28;20507;-54
2023/11/24 17:16:20;;;;;;;3.40;1.77;;;;;;;3.31;72.38;99115.09;15733616;28;20048;-55
2023/11/24 17:23:55;;;;;;;;;;;;;;;3.40;72.44;99124.47;15718274;28;20526;-53
2023/11/24 17:31:29;;;;;;;0.00;0.00;;;;;;;3.45;72.50;99122.06;15717870;28;20386;-55
2023/11/24 17:39:06;;;;;;;0.00;0.00;;;;;;;3.47;72.68;99111.22;15700129;28;20063;-56
2023/11/24 17:46:40;;;;;;;0.00;0.00;;;;;;;3.32;73.53;99112.25;15710911;28;20094;-53
2023/11/24 17:54:15;;;;;;;0.22;0.20;;;;;;;3.28;73.97;99096.94;15733560;28;20425;-55
2023/11/24 18:01:50;;;;;;;0.00;0.00;;;;;;;3.38;73.65;99086.75;15719241;28;20046;-56
2023/11/24 18:09:25;;;;;;;0.00;0.00;;;;;;;3.53;73.05;99102.44;15739161;28;20494;-55
2023/11/24 18:16:58;;;;;;;0.00;0.00;;;;;;;3.41;72.83;99094.31;15719340;28;20032;-53
2023/11/24 18:24:32;;;;;;;0.00;0.00;;;;;;;3.33;73.04;99083.88;15738669;28;20040;-51
2023/11/24 18:32:06;;;;;;;0.00;0.00;;;;;;;3.52;72.00;99085.72;15738811;28;20511;-52
2023/11/24 18:39:43;;;;;;;0.00;0.00;;;;;;;3.31;72.77;99070.00;15737524;28;20414;-56
2023/11/24 18:47:17;;;;;;;0.00;0.00;;;;;;;3.54;72.51;99066.94;15727469;28;20044;-56
2023/11/24 18:54:52;;;;;;;0.00;0.00;;;;;;;3.41;72.45;99070.44;15737843;28;20045;-54
2023/11/24 19:02:26;;;;;;;0.00;0.00;;;;;;;3.47;72.52;99084.69;15742866;28;20509;-53
2023/11/24 19:10:01;;;;;;;0.00;0.00;;;;;;;3.54;72.16;99081.03;15743610;28;20036;-54
2023/11/24 19:17:35;;;;;;;0.00;0.00;;;;;;;3.31;74.20;99062.03;15743694;28;20064;-52
2023/11/24 19:25:10;;;;;;;0.30;0.30;;;;;;;3.20;76.15;99094.47;15716631;28;20052;-56
2023/11/24 19:32:43;;;;;;;0.13;0.13;;;;;;;3.30;77.41;99090.41;15741846;28;20076;-51
2023/11/24 19:40:18;;;;;;;0.00;0.00;;;;;;;3.17;79.10;99090.41;15741146;28;20045;-55
2023/11/24 19:47:55;;;;;;;6.53;2.22;;;;;;;3.13;79.59;99094.50;15740747;28;20048;-57
2023/11/24 19:55:31;;;;;;;0.00;0.00;;;;;;;3.27;79.09;99088.19;15725453;28;20047;-53
2023/11/24 20:03:07;;;;;;;0.00;0.00;;;;;;;2.94;78.80;99104.03;15755679;22;20048;-49
2023/11/24 20:10:42;;;;;;;;;;;;;;;2.81;78.91;99114.63;15731890;28;20498;-52
2023/11/24 20:18:16;;;;;;;0.00;0.00;;;;;;;2.99;79.51;99114.03;15740031;28;19925;-49
2023/11/24 20:25:52;;;;;;;0.00;0.00;;;;;;;2.32;81.06;99120.13;15721366;28;20045;-47
2023/11/24 20:33:26;;;;;;;0.00;0.00;;;;;;;2.39;79.60;99120.97;15721984;28;20079;-50
2023/11/24 20:41:01;;;;;;;0.00;0.00;;;;;;;2.00;80.23;99128.50;15737264;28;20133;-50
2023/11/24 20:48:34;;;;;;;0.00;0.00;;;;;;;2.39;78.46;99150.94;15708407;28;20048;-51
2023/11/24 20:56:09;;;;;;;;;;;;;;;1.80;79.68;99196.34;15732639;28;20145;-51
2023/11/24 21:03:42;;;;;;;0.00;0.00;;;;;;;1.30;82.10;99218.44;15715038;28;19921;-52
2023/11/24 21:11:17;;;;;;;;;;;;;;;2.16;78.29;99201.50;15733911;28;20498;-50
2023/11/24 21:18:51;;;;;;;0.00;0.00;;;;;;;2.59;76.74;99209.28;15716031;28;19924;-52
2023/11/24 21:26:26;;;;;;;0.00;0.00;;;;;;;2.65;76.46;99227.03;15732554;28;20052;-50
2023/11/24 21:34:00;;;;;;;0.00;0.00;;;;;;;2.44;75.96;99246.47;15715149;28;20119;-51
2023/11/24 21:41:41;;;;;;;0.10;0.10;;;;;;;2.60;75.82;99271.81;15732570;28;20068;-53
2023/11/24 21:49:14;;;;;;;0.00;0.00;;;;;;;2.55;76.83;99287.47;15732540;28;20075;-47
2023/11/24 21:56:49;;;;;;;0.90;0.90;;;;;;;2.44;76.42;99306.56;15732267;28;20055;-50
2023/11/24 22:04:24;;;;;;;0.00;0.00;;;;;;;1.97;78.34;99323.91;15743614;28;20045;-49
2023/11/24 22:11:59;;;;;;;0.00;0.00;;;;;;;1.99;78.02;99349.16;15744554;28;20045;-48
2023/11/24 22:19:32;;;;;;;0.00;0.00;;;;;;;1.81;78.96;99361.97;15749770;28;20037;-46
2023/11/24 22:27:07;;;;;;;0.15;0.15;;;;;;;1.32;81.07;99381.16;15742905;28;20515;-48
2023/11/24 22:34:41;;;;;;;0.00;0.00;;;;;;;1.38;81.59;99388.34;15706513;28;20049;-50
2023/11/24 22:42:16;;;;;;;;;;;;;;;1.06;82.03;99410.69;15744300;28;20051;-46
2023/11/24 22:49:49;;;;;;;0.10;0.10;;;;;;;0.97;82.97;99423.16;15742112;28;19927;-46
2023/11/24 22:57:24;;;;;;;0.00;0.00;;;;;;;1.19;81.50;99439.94;15740773;28;20095;-46
2023/11/24 23:04:59;;;;;;;0.00;0.00;;;;;;;1.32;81.11;99449.88;15739521;28;20437;-50
2023/11/24 23:12:34;;;;;;;3.50;1.17;;;;;;;1.28;80.33;99462.63;15739903;28;20060;-49
2023/11/24 23:20:09;;;;;;;0.00;0.00;;;;;;;0.87;82.72;99483.34;15740184;28;20078;-52
2023/11/24 23:27:44;;;;;;;0.00;0.00;;;;;;;0.95;82.36;99499.13;15732177;28;20055;-48
2023/11/24 23:35:22;;;;;;;0.00;0.00;;;;;;;1.09;81.74;99504.63;15737906;28;20473;-46
2023/11/24 23:42:57;;;;;;;0.00;0.00;;;;;;;0.99;81.39;99516.28;15738712;28;20040;-50
2023/11/24 23:50:30;;;;;;;0.00;0.00;;;;;;;0.86;83.05;99531.09;15738623;28;20032;-52
2023/11/24 23:58:05;;;;;;;0.00;0.00;;;;;;;1.12;82.20;99542.09;15712896;28;20053;-51
